Flight Track Log - Related Links

Times and Time Zones

All times are in EDT time to prevent confusion due to time zone crossing. See the PDT4262 flight status page for this flight to view local times or setup timezone preferences in your user account.

Time Position Orientation Groundspeed Altitude Reporting Facility
EDT Latitude Longitude Course Direction KTS MPH feet Rate Location/Type
Sun 11:48:27 AM 39.9000 -75.2333 311° West 121 139 500  Level Philadelphia TRACON
Sun 11:49:09 AM 39.9167 -75.2667 303° West 124 143 1,500 1,375 Climbing Philadelphia TRACON
Sun 11:50:03 AM 39.9333 -75.3000 303° West 136 157 2,700 1,150 Climbing Philadelphia TRACON
Sun 11:51:00 AM 40.0574 -75.4074 323° Northwest  Level FlightAware Approximate
Sun 11:51:09 AM 39.9500 -75.3500 294° West 162 186 3,800  Level Philadelphia TRACON
Sun 11:52:00 AM 40.1177 -75.4677 323° Northwest  Level FlightAware Approximate
Sun 11:52:09 AM 39.9500 -75.4167 270° West 155 178 5,000  Level Philadelphia TRACON
Sun 11:53:00 AM 40.1810 -75.5215 311° West  Level FlightAware Approximate
Sun 11:53:09 AM 39.9500 -75.4667 270° West 156 180 6,300  Level Philadelphia TRACON
Sun 11:54:00 AM 40.2387 -75.5831 311° West  Level FlightAware Approximate
Sun 11:54:09 AM 39.9500 -75.5167 270° West 152 175 7,400  Level Philadelphia TRACON
Sun 11:55:09 AM 39.9833 -75.5500 323° Northwest 189 217 8,400 800 Climbing Philadelphia TRACON
Sun 11:56:09 AM 40.0333 -75.5333 14° North 194 223 9,000 360 Climbing Philadelphia TRACON
Sun 11:56:49 AM 40.0753 -75.5425 351° North 227 261 9,000 540 Level New York Center
Sun 11:57:49 AM 40.1417 -75.5525 353° North 232 267 9,900 942 Climbing New York Center
Sun 11:58:50 AM 40.1894 -75.5558 357° North 200 230 10,900 893 Climbing New York Center
Sun 11:59:50 AM 40.2406 -75.5783 341° North 187 215 11,700 750 Climbing New York Center
Sun 12:00:50 PM 40.2786 -75.6164 323° Northwest 170 196 12,400 694 Climbing New York Center
Sun 12:01:51 PM 40.3347 -75.6203 357° North 170 196 13,100 843 Climbing New York Center
Sun 12:02:51 PM 40.3847 -75.6211 359° North 190 219 14,100 864 Climbing New York Center
Sun 12:03:49 PM 40.4475 -75.6147 North 196 226 14,800 661 Climbing New York Center
Sun 12:04:49 PM 40.4992 -75.6264 350° North 196 226 15,400 595 Climbing New York Center
Sun 12:05:50 PM 40.5528 -75.6411 348° North 196 226 16,000 545 Climbing New York Center
Sun 12:06:50 PM 40.6069 -75.6450 357° North 196 226 16,500 446 Climbing New York Center
Sun 12:07:51 PM 40.6592 -75.6406 North 196 226 16,900 248 Climbing New York Center
Sun 12:08:51 PM 40.7194 -75.6447 357° North 201 231 17,000 51 Climbing New York Center
Sun 12:09:49 PM 40.7892 -75.6197 15° North 223 257 17,000 51 Level New York Center
Sun 12:10:49 PM 40.8528 -75.5911 19° North 229 264 17,100 50 Climbing New York Center
Sun 12:11:50 PM 40.9142 -75.5653 18° North 235 270 17,100  Level New York Center
Sun 12:12:51 PM 40.9717 -75.5364 21° North 235 270 17,100 -50 Level New York Center
Sun 12:13:49 PM 41.0419 -75.4975 23° Northeast 235 270 17,000 -51 Descending New York Center
Sun 12:14:49 PM 41.1075 -75.4717 17° North 235 270 17,000  Level New York Center
Sun 12:15:50 PM 41.1714 -75.4403 20° North 235 270 17,000  Level New York Center
Sun 12:16:50 PM 41.2289 -75.4111 21° North 235 270 17,000  Level New York Center
Sun 12:17:51 PM 41.3006 -75.3828 17° North 235 270 17,000  Level New York Center
Sun 12:18:51 PM 41.3644 -75.3514 20° North 235 270 17,000  Level New York Center
Sun 12:20:42 PM 41.4828 -75.2889 22° Northeast 249 287 17,000  Level Boston Center
Sun 12:21:42 PM 41.5333 -75.2661 19° North 249 287 17,000  Level Boston Center
Sun 12:22:42 PM 41.6117 -75.2222 23° Northeast 249 287 17,000  Level Boston Center
Sun 12:23:42 PM 41.6747 -75.1972 16° North 249 287 17,000  Level Boston Center
Sun 12:24:42 PM 41.7403 -75.1667 19° North 244 281 17,000  Level Boston Center
Sun 12:25:42 PM 41.8056 -75.1306 22° Northeast 244 281 17,000  Level Boston Center
Sun 12:26:42 PM 41.8689 -75.1081 15° North 238 274 17,000  Level Boston Center
Sun 12:27:42 PM 41.9319 -75.0800 18° North 233 268 17,000  Level Boston Center
Sun 12:28:42 PM 41.9933 -75.0436 24° Northeast 233 268 17,000 -150 Level Boston Center
Sun 12:29:42 PM 42.0586 -75.0156 18° North 233 268 16,700 -650 Descending Boston Center
Sun 12:30:42 PM 42.1239 -74.9875 18° North 238 274 15,700 -1,050 Descending Boston Center
Sun 12:31:42 PM 42.1869 -74.9564 20° North 238 274 14,600 -1,000 Descending Boston Center
Sun 12:32:42 PM 42.2283 -74.8739 56° Northeast 238 274 13,700 -1,000 Descending Boston Center
Sun 12:33:24 PM 42.2525 -74.8158 61° Northeast 271 312 12,900 -1,000 Descending Boston Center
Sun 12:33:42 PM 42.2719 -74.7914 43° Northeast 246 283 12,700 -923 Descending Boston Center
Sun 12:34:42 PM 42.3114 -74.6917 62° Northeast 269 310 11,700 -850 Descending Boston Center
Sun 12:35:42 PM 42.3569 -74.5978 57° Northeast 293 337 11,000 -350 Descending Boston Center
Sun 12:36:42 PM 42.4000 -74.5206 53° Northeast 293 337 11,000 -50 Level Boston Center
Sun 12:37:42 PM 42.4456 -74.4236 57° Northeast 283 326 10,900 -600 Descending Boston Center
Sun 12:38:42 PM 42.4825 -74.3347 61° Northeast 283 326 9,800 -1,400 Descending Boston Center
Sun 12:39:42 PM 42.5364 -74.2294 55° Northeast 292 336 8,100 -1,409 Descending Boston Center
Sun 12:40:54 PM 42.5833 -74.1517 51° Northeast 292 336 6,700 -1,476 Descending Boston Center
Sun 12:41:48 PM 42.6411 -74.0489 53° Northeast 294 338 5,000 -1,761 Descending Boston Center
Sun 12:42:43 PM 42.6797 -73.9708 56° Northeast 282 325 3,500 -1,692 Descending Boston Center
Sun 12:43:06 PM 42.6992 -73.9344 54° Northeast 286 329 2,800 -1,364 Descending Boston Center
Sun 12:43:49 PM 42.7308 -73.8900 46° Northeast 223 257 2,000 -1,116 Descending Boston Center

Login

Don't have an account? Register now (free) for customized features, flight alerts, and more!